createdAt,value
2017-12-02T05:00:50.940Z,0
2017-12-02T05:01:16.454Z,0
2017-12-02T05:01:41.938Z,0
2017-12-02T05:02:50.651Z,0
2017-12-02T05:03:16.126Z,0
2017-12-02T05:03:41.596Z,0
2017-12-02T05:04:07.073Z,0
2017-12-02T05:04:32.536Z,0
2017-12-02T05:04:58.048Z,0
2017-12-02T05:05:23.528Z,0
2017-12-02T05:05:49.042Z,0
2017-12-02T05:06:14.527Z,0
2017-12-02T05:06:40.072Z,0
2017-12-02T05:07:05.576Z,0
2017-12-02T05:07:31.098Z,0
2017-12-02T05:07:56.577Z,0
2017-12-02T05:08:22.025Z,0
2017-12-02T05:08:47.498Z,0
2017-12-02T05:09:12.995Z,0
2017-12-02T05:10:16.612Z,0
2017-12-02T05:10:42.110Z,0
2017-12-02T05:11:07.596Z,0
2017-12-02T05:11:33.094Z,0
2017-12-02T05:11:58.616Z,0
2017-12-02T05:12:24.117Z,0
2017-12-02T05:12:49.604Z,0
2017-12-02T05:13:15.069Z,0
2017-12-02T05:13:40.604Z,0
2017-12-02T05:14:06.102Z,0
2017-12-02T05:14:31.589Z,0
2017-12-02T05:14:57.009Z,0
2017-12-02T05:15:22.508Z,0
2017-12-02T05:15:48.017Z,0
2017-12-02T05:16:13.465Z,0
2017-12-02T05:16:38.923Z,0
2017-12-02T05:17:04.412Z,0
2017-12-02T05:17:29.837Z,0
2017-12-02T05:17:55.368Z,0
2017-12-02T05:18:20.828Z,0
2017-12-02T05:18:46.267Z,0
2017-12-02T05:19:11.745Z,0
2017-12-02T05:19:37.246Z,0
2017-12-02T05:20:02.686Z,0
2017-12-02T05:20:28.164Z,0
2017-12-02T05:20:53.658Z,0
2017-12-02T05:21:19.149Z,0
2017-12-02T05:21:44.626Z,0
2017-12-02T05:22:10.105Z,0
2017-12-02T05:22:35.569Z,0
2017-12-02T05:23:01.040Z,0
2017-12-02T05:23:26.515Z,0
2017-12-02T05:23:51.952Z,0
2017-12-02T05:24:17.481Z,0
2017-12-02T05:24:42.907Z,0
2017-12-02T05:25:08.344Z,0
2017-12-02T05:25:33.853Z,0
2017-12-02T05:25:59.341Z,0
2017-12-02T05:26:24.835Z,0
2017-12-02T05:26:50.263Z,0
2017-12-02T05:27:15.724Z,0
2017-12-02T05:27:41.197Z,0
2017-12-02T05:28:06.703Z,0
2017-12-02T05:28:32.226Z,0
2017-12-02T05:28:57.759Z,0
2017-12-02T05:29:23.216Z,0
2017-12-02T05:29:48.672Z,0
2017-12-02T05:30:14.221Z,0
2017-12-02T05:30:39.732Z,0
2017-12-02T05:31:05.245Z,0
2017-12-02T05:31:30.746Z,0
2017-12-02T05:31:56.271Z,0
2017-12-02T05:32:21.751Z,0
2017-12-02T05:32:47.272Z,0
2017-12-02T05:33:12.837Z,0
2017-12-02T05:33:38.345Z,0
2017-12-02T05:34:03.895Z,0
2017-12-02T05:34:29.419Z,0
2017-12-02T05:34:54.889Z,0
2017-12-02T05:35:20.477Z,0
2017-12-02T05:35:45.880Z,0
2017-12-02T05:36:11.336Z,0
2017-12-02T05:36:36.849Z,0
2017-12-02T05:37:02.321Z,0
2017-12-02T05:37:27.818Z,0
2017-12-02T05:37:53.224Z,0
2017-12-02T05:38:18.717Z,0
2017-12-02T05:38:44.231Z,0
2017-12-02T05:39:09.668Z,0
2017-12-02T05:39:35.119Z,0
2017-12-02T05:40:00.569Z,0
2017-12-02T05:40:26.082Z,0
2017-12-02T05:40:51.541Z,0
2017-12-02T05:41:17.035Z,0
2017-12-02T05:41:42.468Z,0
2017-12-02T05:42:07.914Z,0
2017-12-02T05:42:33.441Z,0
2017-12-02T05:42:58.945Z,0
2017-12-02T05:43:24.453Z,0
2017-12-02T05:43:49.960Z,0
2017-12-02T05:44:15.439Z,0
2017-12-02T05:44:40.947Z,0
2017-12-02T05:45:06.449Z,0
2017-12-02T05:45:31.947Z,0
2017-12-02T05:45:57.495Z,0
2017-12-02T05:46:22.997Z,0
2017-12-02T05:46:48.487Z,0
2017-12-02T05:47:13.985Z,0
2017-12-02T05:47:39.489Z,0
2017-12-02T05:48:04.975Z,0
2017-12-02T05:48:30.475Z,0
2017-12-02T05:48:55.959Z,0
2017-12-02T05:49:21.427Z,0
2017-12-02T05:49:46.917Z,0
2017-12-02T05:50:12.386Z,0
2017-12-02T05:50:37.867Z,0
2017-12-02T05:51:03.336Z,0
2017-12-02T05:51:28.854Z,0
2017-12-02T05:51:54.353Z,0
2017-12-02T05:52:19.852Z,0
2017-12-02T05:52:45.357Z,0
2017-12-02T05:53:10.837Z,0
2017-12-02T05:53:36.346Z,0
2017-12-02T05:54:01.818Z,0
2017-12-02T05:54:27.303Z,0
2017-12-02T05:54:52.882Z,0
2017-12-02T05:55:18.339Z,0
2017-12-02T05:55:43.829Z,0
2017-12-02T05:56:09.322Z,0
2017-12-02T05:56:34.803Z,0
2017-12-02T05:57:00.303Z,0
2017-12-02T05:57:25.828Z,0
2017-12-02T05:58:39.667Z,0
2017-12-02T05:59:05.315Z,0
2017-12-02T05:59:30.796Z,0
2017-12-02T05:59:56.284Z,0
2017-12-02T06:00:21.758Z,0
2017-12-02T06:00:47.221Z,0
2017-12-02T06:01:12.702Z,0
2017-12-02T06:01:38.172Z,0
2017-12-02T06:02:46.843Z,0
2017-12-02T06:03:12.383Z,0
2017-12-02T06:03:37.899Z,0
2017-12-02T06:04:03.415Z,0
2017-12-02T06:04:28.920Z,0
2017-12-02T06:04:54.408Z,0
2017-12-02T06:05:19.866Z,0
2017-12-02T06:05:45.345Z,0
2017-12-02T06:06:10.870Z,0
2017-12-02T06:06:36.353Z,0
2017-12-02T06:07:01.843Z,0
2017-12-02T06:08:20.765Z,0
2017-12-02T06:08:46.263Z,0
2017-12-02T06:09:11.724Z,0
2017-12-02T06:09:37.229Z,0
2017-12-02T06:10:02.739Z,0
2017-12-02T06:11:12.428Z,0
2017-12-02T06:11:37.907Z,0
2017-12-02T06:12:52.716Z,0
2017-12-02T06:13:18.230Z,0
2017-12-02T06:13:43.705Z,0
2017-12-02T06:14:09.208Z,0
2017-12-02T06:14:34.696Z,0
2017-12-02T06:15:00.204Z,0
2017-12-02T06:15:25.695Z,0
2017-12-02T06:15:51.157Z,0
2017-12-02T06:16:16.632Z,0
2017-12-02T06:16:42.127Z,0
2017-12-02T06:17:07.652Z,0
2017-12-02T06:17:33.146Z,0
2017-12-02T06:17:58.680Z,0
2017-12-02T06:18:24.161Z,0
2017-12-02T06:18:49.628Z,0
2017-12-02T06:19:15.118Z,0
2017-12-02T06:19:40.574Z,0
2017-12-02T06:20:06.051Z,0
2017-12-02T06:20:31.544Z,0
2017-12-02T06:20:57.051Z,0
2017-12-02T06:21:22.541Z,0
2017-12-02T06:21:47.989Z,0
2017-12-02T06:22:13.423Z,0
2017-12-02T06:22:38.915Z,0
2017-12-02T06:23:04.448Z,0
2017-12-02T06:23:29.942Z,0
2017-12-02T06:23:55.449Z,0
2017-12-02T06:24:20.958Z,0
2017-12-02T06:24:46.410Z,0
2017-12-02T06:25:11.908Z,0
2017-12-02T06:25:37.400Z,0
2017-12-02T06:26:02.885Z,0
2017-12-02T06:26:28.381Z,0
2017-12-02T06:26:53.895Z,0
2017-12-02T06:27:19.364Z,0
2017-12-02T06:27:44.877Z,0
2017-12-02T06:28:10.394Z,0
2017-12-02T06:28:35.860Z,0
2017-12-02T06:29:01.331Z,0
2017-12-02T06:29:26.807Z,0
2017-12-02T06:29:52.310Z,0
2017-12-02T06:30:17.790Z,0
2017-12-02T06:30:43.310Z,0
2017-12-02T06:31:08.855Z,0
2017-12-02T06:31:34.374Z,0
2017-12-02T06:31:59.887Z,0
2017-12-02T06:32:25.404Z,0
2017-12-02T06:32:50.934Z,0
2017-12-02T06:33:16.426Z,0
2017-12-02T06:33:41.968Z,0
2017-12-02T06:34:07.476Z,0
2017-12-02T06:34:32.996Z,0
2017-12-02T06:34:58.493Z,0
2017-12-02T06:35:23.979Z,0
2017-12-02T06:35:49.500Z,0
2017-12-02T06:36:14.987Z,0
2017-12-02T06:36:40.464Z,0
2017-12-02T06:37:05.962Z,0
2017-12-02T06:37:31.461Z,0
2017-12-02T06:37:56.978Z,0
2017-12-02T06:38:22.532Z,0
2017-12-02T06:38:48.028Z,0
2017-12-02T06:39:13.550Z,0
2017-12-02T06:40:22.211Z,0
2017-12-02T06:40:47.693Z,0
2017-12-02T06:41:13.166Z,0
2017-12-02T06:41:38.660Z,0
2017-12-02T06:42:04.226Z,0
2017-12-02T06:42:29.716Z,0
2017-12-02T06:42:55.188Z,0
2017-12-02T06:43:20.692Z,0
2017-12-02T06:44:35.502Z,0
2017-12-02T06:45:01.025Z,0
2017-12-02T06:45:26.508Z,0
2017-12-02T06:45:52.001Z,0
2017-12-02T06:46:17.541Z,4
2017-12-02T06:46:42.992Z,4
2017-12-02T06:47:08.494Z,4
2017-12-02T06:47:33.988Z,4
2017-12-02T06:47:59.544Z,0
2017-12-02T06:48:25.159Z,0
2017-12-02T06:48:50.596Z,0
2017-12-02T06:49:16.094Z,0
2017-12-02T06:49:41.600Z,4
2017-12-02T06:50:07.086Z,4
2017-12-02T06:50:32.607Z,4
2017-12-02T06:51:46.422Z,0
2017-12-02T06:52:11.903Z,0
2017-12-02T06:52:37.409Z,4
2017-12-02T06:53:02.918Z,4
2017-12-02T06:54:26.902Z,4
2017-12-02T06:54:52.405Z,4
2017-12-02T06:55:17.904Z,4
2017-12-02T06:55:43.461Z,8
2017-12-02T06:56:08.957Z,8
2017-12-02T06:56:34.428Z,4
2017-12-02T06:56:59.914Z,8
2017-12-02T06:57:25.407Z,8
2017-12-02T06:57:50.912Z,8
2017-12-02T06:58:16.362Z,4
2017-12-02T06:58:42.196Z,8
2017-12-02T06:59:07.747Z,8
2017-12-02T06:59:33.278Z,8
2017-12-02T06:59:58.780Z,12
2017-12-02T07:00:24.301Z,8
2017-12-02T07:00:49.801Z,12
2017-12-02T07:01:15.333Z,12
2017-12-02T07:01:40.798Z,12
2017-12-02T07:02:06.382Z,16
2017-12-02T07:03:30.602Z,16
2017-12-02T07:03:56.071Z,16
2017-12-02T07:04:21.626Z,20
2017-12-02T07:04:47.099Z,20
2017-12-02T07:05:12.636Z,20
2017-12-02T07:05:38.134Z,24
2017-12-02T07:06:03.611Z,20
2017-12-02T07:06:29.105Z,24
2017-12-02T07:06:54.655Z,24
2017-12-02T07:07:20.162Z,28
2017-12-02T07:07:45.692Z,28
2017-12-02T07:08:11.205Z,28
2017-12-02T07:08:36.689Z,28
2017-12-02T07:09:02.193Z,28
2017-12-02T07:09:27.690Z,32
2017-12-02T07:09:53.171Z,32
2017-12-02T07:10:18.669Z,36
2017-12-02T07:10:44.188Z,40
2017-12-02T07:11:09.693Z,40
2017-12-02T07:11:35.196Z,40
2017-12-02T07:12:00.665Z,40
2017-12-02T07:12:26.176Z,44
2017-12-02T07:12:51.659Z,40
2017-12-02T07:13:17.140Z,44
2017-12-02T07:13:42.626Z,48
2017-12-02T07:14:08.121Z,48
2017-12-02T07:14:33.586Z,48
2017-12-02T07:14:59.040Z,52
2017-12-02T07:15:24.554Z,52
2017-12-02T07:15:50.054Z,56
2017-12-02T07:16:15.557Z,56
2017-12-02T07:16:41.045Z,56
2017-12-02T07:17:06.547Z,60
2017-12-02T07:17:31.990Z,60
2017-12-02T07:17:57.464Z,64
2017-12-02T07:18:22.922Z,64
2017-12-02T07:18:48.440Z,68
2017-12-02T07:19:13.919Z,68
2017-12-02T07:19:39.378Z,68
2017-12-02T07:20:04.852Z,72
2017-12-02T07:20:30.359Z,76
2017-12-02T07:20:55.823Z,76
2017-12-02T07:21:21.340Z,80
2017-12-02T07:21:46.888Z,80
2017-12-02T07:22:12.389Z,84
2017-12-02T07:22:37.897Z,84
2017-12-02T07:23:03.358Z,88
2017-12-02T07:23:28.843Z,88
2017-12-02T07:23:54.318Z,92
2017-12-02T07:24:19.818Z,92
2017-12-02T07:24:45.291Z,92
2017-12-02T07:25:10.750Z,96
2017-12-02T07:25:36.190Z,100
2017-12-02T07:26:01.695Z,100
2017-12-02T07:26:27.187Z,100
2017-12-02T07:26:52.672Z,104
2017-12-02T07:27:18.167Z,108
2017-12-02T07:27:43.684Z,112
2017-12-02T07:28:09.140Z,116
2017-12-02T07:29:12.753Z,116
2017-12-02T07:29:38.238Z,120
2017-12-02T07:30:03.746Z,120
2017-12-02T07:30:29.237Z,124
2017-12-02T07:30:54.737Z,124
2017-12-02T07:31:20.238Z,128
2017-12-02T07:31:45.706Z,132
2017-12-02T07:32:11.193Z,136
2017-12-02T07:32:36.685Z,144
2017-12-02T07:33:02.171Z,144
2017-12-02T07:33:27.669Z,152
2017-12-02T07:33:53.165Z,152
2017-12-02T07:34:18.618Z,156
2017-12-02T07:35:32.402Z,164
2017-12-02T07:35:57.882Z,164
2017-12-02T07:36:23.366Z,172
2017-12-02T07:36:48.851Z,172
2017-12-02T07:37:14.372Z,176
2017-12-02T07:37:39.862Z,172
2017-12-02T07:38:05.352Z,176
2017-12-02T07:38:30.802Z,184
2017-12-02T07:38:56.323Z,188
2017-12-02T07:39:21.811Z,188
2017-12-02T07:39:47.299Z,196
2017-12-02T07:40:12.761Z,196
2017-12-02T07:40:38.283Z,196
2017-12-02T07:41:03.795Z,204
2017-12-02T07:42:12.467Z,212
2017-12-02T07:42:37.967Z,212
2017-12-02T07:43:03.458Z,216
2017-12-02T07:43:28.948Z,220
2017-12-02T07:43:54.447Z,228
2017-12-02T07:44:19.918Z,224
2017-12-02T07:44:45.420Z,232
2017-12-02T07:45:10.910Z,240
2017-12-02T07:45:36.398Z,244
2017-12-02T07:46:01.869Z,252
2017-12-02T07:46:27.370Z,252
2017-12-02T07:46:52.823Z,256
2017-12-02T07:47:18.295Z,264
2017-12-02T07:47:43.790Z,268
2017-12-02T07:48:09.294Z,276
2017-12-02T07:48:34.752Z,276
2017-12-02T07:49:00.272Z,284
2017-12-02T07:49:25.749Z,284
2017-12-02T07:49:51.275Z,284
2017-12-02T07:50:16.727Z,292
2017-12-02T07:50:42.213Z,296
2017-12-02T07:51:07.703Z,296
2017-12-02T07:51:33.200Z,296
2017-12-02T07:51:58.670Z,304
2017-12-02T07:53:12.472Z,316
2017-12-02T07:53:37.955Z,324
2017-12-02T07:54:03.439Z,328
2017-12-02T07:54:28.914Z,332
2017-12-02T07:54:54.398Z,328
2017-12-02T07:55:19.905Z,332
2017-12-02T07:55:45.407Z,328
2017-12-02T07:56:10.909Z,328
2017-12-02T07:56:36.405Z,328
2017-12-02T07:57:01.909Z,332
2017-12-02T07:57:27.368Z,336
2017-12-02T07:57:52.900Z,344
2017-12-02T07:59:01.620Z,360
2017-12-02T07:59:27.169Z,368
2017-12-02T07:59:52.663Z,380
2017-12-02T08:00:18.185Z,396
2017-12-02T08:00:43.658Z,420
2017-12-02T08:01:09.166Z,444
2017-12-02T08:01:34.662Z,468
2017-12-02T08:02:00.217Z,488
2017-12-02T08:02:25.742Z,492
2017-12-02T08:02:51.238Z,492
2017-12-02T08:03:16.749Z,496
2017-12-02T08:03:42.248Z,500
2017-12-02T08:04:07.798Z,500
2017-12-02T08:04:33.226Z,496
2017-12-02T08:04:58.741Z,496
2017-12-02T08:05:24.256Z,496
2017-12-02T08:05:49.713Z,492
2017-12-02T08:06:15.263Z,500
2017-12-02T08:06:40.731Z,508
2017-12-02T08:07:06.239Z,516
2017-12-02T08:07:31.717Z,528
2017-12-02T08:07:57.190Z,536
2017-12-02T08:08:22.710Z,540
2017-12-02T08:08:48.194Z,544
2017-12-02T08:09:13.764Z,548
2017-12-02T08:09:39.313Z,544
2017-12-02T08:10:04.768Z,544
2017-12-02T08:10:30.330Z,544
2017-12-02T08:10:55.826Z,548
2017-12-02T08:11:21.309Z,560
2017-12-02T08:11:46.775Z,568
2017-12-02T08:12:12.347Z,580
2017-12-02T08:12:37.843Z,588
2017-12-02T08:13:03.321Z,580
2017-12-02T08:13:28.791Z,576
2017-12-02T08:13:54.295Z,568
2017-12-02T08:14:19.758Z,564
2017-12-02T08:14:45.297Z,564
2017-12-02T08:15:10.759Z,560
2017-12-02T08:15:36.264Z,564
2017-12-02T08:16:39.905Z,596
2017-12-02T08:17:05.396Z,604
2017-12-02T08:17:30.874Z,616
2017-12-02T08:17:56.387Z,628
2017-12-02T08:18:21.883Z,640
2017-12-02T08:18:47.373Z,652
2017-12-02T08:19:12.854Z,664
2017-12-02T08:19:38.361Z,664
2017-12-02T08:20:03.860Z,652
2017-12-02T08:20:29.343Z,644
2017-12-02T08:20:54.847Z,632
2017-12-02T08:21:20.373Z,624
2017-12-02T08:21:45.888Z,620
2017-12-02T08:22:11.395Z,624
2017-12-02T08:22:36.905Z,640
2017-12-02T08:23:02.416Z,656
2017-12-02T08:24:21.356Z,712
2017-12-02T08:24:46.846Z,724
2017-12-02T08:25:55.504Z,740
2017-12-02T08:26:21.016Z,728
2017-12-02T08:26:46.506Z,716
2017-12-02T08:27:11.999Z,696
2017-12-02T08:27:37.482Z,684
2017-12-02T08:28:03.024Z,684
2017-12-02T08:28:28.599Z,684
2017-12-02T08:28:54.104Z,692
2017-12-02T08:29:19.605Z,704
2017-12-02T08:29:45.090Z,712
2017-12-02T08:30:10.588Z,724
2017-12-02T08:30:36.163Z,728
2017-12-02T08:31:01.669Z,728
2017-12-02T08:31:27.186Z,732
2017-12-02T08:31:52.677Z,724
2017-12-02T08:32:18.170Z,720
2017-12-02T08:32:43.680Z,724
2017-12-02T08:33:09.203Z,732
2017-12-02T08:33:34.686Z,744
2017-12-02T08:34:00.157Z,756
2017-12-02T08:34:25.690Z,764
2017-12-02T08:34:51.244Z,764
2017-12-02T08:35:16.699Z,768
2017-12-02T08:35:42.244Z,780
2017-12-02T08:36:07.761Z,792
2017-12-02T08:36:33.226Z,804
2017-12-02T08:36:58.728Z,820
2017-12-02T08:37:24.273Z,844
2017-12-02T08:37:49.780Z,872
2017-12-02T08:38:15.331Z,900
2017-12-02T08:38:40.839Z,928
2017-12-02T08:39:06.347Z,948
2017-12-02T08:39:31.837Z,956
2017-12-02T08:39:57.350Z,940
2017-12-02T08:40:22.840Z,932
2017-12-02T08:40:48.365Z,928
2017-12-02T08:41:13.870Z,936
2017-12-02T08:41:39.336Z,956
2017-12-02T08:42:04.807Z,992
2017-12-02T08:42:30.254Z,1032
2017-12-02T08:42:55.771Z,1072
2017-12-02T08:43:21.249Z,1116
2017-12-02T08:43:46.774Z,1144
2017-12-02T08:44:12.279Z,1148
2017-12-02T08:44:37.804Z,1124
2017-12-02T08:45:56.695Z,1012
2017-12-02T08:46:22.182Z,988
2017-12-02T08:46:47.696Z,980
2017-12-02T08:47:13.176Z,988
2017-12-02T08:47:38.652Z,1000
2017-12-02T08:48:04.132Z,1016
2017-12-02T08:48:29.637Z,1040
2017-12-02T08:48:55.123Z,1072
2017-12-02T08:49:20.621Z,1108
2017-12-02T08:49:46.145Z,1140
2017-12-02T08:50:11.607Z,1160
2017-12-02T08:50:37.116Z,1184
2017-12-02T08:51:02.551Z,1200
2017-12-02T08:51:28.080Z,1208
2017-12-02T08:51:53.608Z,1196
2017-12-02T08:52:19.113Z,1192
2017-12-02T08:52:44.620Z,1188
2017-12-02T08:53:10.155Z,1196
2017-12-02T08:53:35.658Z,1208
2017-12-02T08:54:01.178Z,1216
2017-12-02T08:54:26.663Z,1232
2017-12-02T08:54:52.216Z,1244
2017-12-02T08:55:17.723Z,1240
2017-12-02T08:55:43.247Z,1236
2017-12-02T08:56:08.733Z,1220
2017-12-02T08:56:34.234Z,1204
2017-12-02T08:56:59.728Z,1188
2017-12-02T08:57:25.212Z,1180
2017-12-02T08:57:50.689Z,1164
2017-12-02T08:58:16.196Z,1152
2017-12-02T08:58:41.703Z,1152
2017-12-02T08:59:07.208Z,1156
2017-12-02T08:59:32.692Z,1168
2017-12-02T08:59:58.188Z,1172
2017-12-02T09:00:23.688Z,1188
2017-12-02T09:00:49.211Z,1204
2017-12-02T09:01:14.712Z,1224
2017-12-02T09:01:40.226Z,1232
2017-12-02T09:02:05.731Z,1220
2017-12-02T09:02:31.201Z,1216
2017-12-02T09:02:56.694Z,1220
2017-12-02T09:03:22.206Z,1216
2017-12-02T09:03:47.718Z,1220
2017-12-02T09:04:13.197Z,1216
2017-12-02T09:04:38.699Z,1232
2017-12-02T09:05:04.187Z,1228
2017-12-02T09:05:29.692Z,1248
2017-12-02T09:05:55.173Z,1268
2017-12-02T09:06:20.657Z,1300
2017-12-02T09:06:46.137Z,1332
2017-12-02T09:07:11.605Z,1360
2017-12-02T09:07:37.114Z,1376
2017-12-02T09:08:02.629Z,1400
2017-12-02T09:08:28.138Z,1436
2017-12-02T09:08:53.625Z,1476
2017-12-02T09:09:19.126Z,1496
2017-12-02T09:09:44.627Z,1532
2017-12-02T09:10:10.098Z,1572
2017-12-02T09:10:35.571Z,1616
2017-12-02T09:11:01.068Z,1652
2017-12-02T09:11:26.587Z,1664
2017-12-02T09:11:52.037Z,1668
2017-12-02T09:12:55.639Z,1692
2017-12-02T09:13:21.136Z,1744
2017-12-02T09:13:46.622Z,1776
2017-12-02T09:14:12.104Z,1768
2017-12-02T09:15:36.067Z,1696
2017-12-02T09:16:01.565Z,1676
2017-12-02T09:16:27.062Z,1672
2017-12-02T09:16:52.503Z,1644
2017-12-02T09:17:17.982Z,1632
2017-12-02T09:17:43.491Z,1628
2017-12-02T09:18:08.968Z,1612
2017-12-02T09:18:34.471Z,1576
2017-12-02T09:18:59.984Z,1568
2017-12-02T09:19:25.438Z,1548
2017-12-02T09:19:50.928Z,1548
2017-12-02T09:20:16.434Z,1528
2017-12-02T09:20:41.941Z,1508
2017-12-02T09:21:07.438Z,1500
2017-12-02T09:21:32.958Z,1496
2017-12-02T09:21:58.424Z,1508
2017-12-02T09:22:23.968Z,1520
2017-12-02T09:22:49.457Z,1520
2017-12-02T09:23:14.945Z,1488
2017-12-02T09:23:40.439Z,1440
2017-12-02T09:24:05.905Z,1404
2017-12-02T09:24:31.381Z,1432
2017-12-02T09:24:56.897Z,1444
2017-12-02T09:25:22.400Z,1432
2017-12-02T09:25:47.896Z,1420
2017-12-02T09:26:13.402Z,1408
2017-12-02T09:26:38.922Z,1376
2017-12-02T09:27:04.398Z,1340
2017-12-02T09:27:29.896Z,1340
2017-12-02T09:28:43.644Z,1444
2017-12-02T09:29:09.141Z,1452
2017-12-02T09:29:34.638Z,1464
2017-12-02T09:30:00.115Z,1468
2017-12-02T09:30:25.604Z,1492
2017-12-02T09:30:51.123Z,1524
2017-12-02T09:31:16.606Z,1524
2017-12-02T09:31:42.117Z,1536
2017-12-02T09:32:07.611Z,1540
2017-12-02T09:32:33.100Z,1528
2017-12-02T09:32:58.587Z,1512
2017-12-02T09:33:24.108Z,1496
2017-12-02T09:33:49.602Z,1496
2017-12-02T09:34:15.119Z,1528
2017-12-02T09:34:40.640Z,1552
2017-12-02T09:35:06.124Z,1584
2017-12-02T09:35:31.600Z,1620
2017-12-02T09:35:57.119Z,1684
2017-12-02T09:36:22.602Z,1724
2017-12-02T09:36:48.080Z,1700
2017-12-02T09:37:13.564Z,1692
2017-12-02T09:37:39.064Z,1712
2017-12-02T09:38:04.572Z,1792
2017-12-02T09:38:30.072Z,1828
2017-12-02T09:38:55.579Z,1800
2017-12-02T09:39:21.077Z,1796
2017-12-02T09:39:46.609Z,1796
2017-12-02T09:40:12.108Z,1804
2017-12-02T09:40:37.613Z,1784
2017-12-02T09:41:03.083Z,1832
2017-12-02T09:41:28.587Z,1920
2017-12-02T09:41:54.061Z,1948
2017-12-02T09:42:19.591Z,1988
2017-12-02T09:42:45.062Z,2016
2017-12-02T09:43:48.666Z,2048
2017-12-02T09:44:14.160Z,2008
2017-12-02T09:44:39.660Z,2004
2017-12-02T09:45:05.159Z,1996
2017-12-02T09:45:30.627Z,1984
2017-12-02T09:45:56.113Z,1948
2017-12-02T09:46:21.636Z,1936
2017-12-02T09:46:47.119Z,1948
2017-12-02T09:47:12.615Z,1936
2017-12-02T09:47:38.130Z,1960
2017-12-02T09:48:03.614Z,1980
2017-12-02T09:48:29.125Z,1972
2017-12-02T09:48:54.646Z,1948
2017-12-02T09:49:20.107Z,1944
2017-12-02T09:49:45.618Z,1956
2017-12-02T09:50:11.147Z,1964
2017-12-02T09:50:36.630Z,1960
2017-12-02T09:51:02.133Z,1940
2017-12-02T09:51:27.662Z,1920
2017-12-02T09:51:53.128Z,1900
2017-12-02T09:52:18.625Z,1884
2017-12-02T09:52:44.092Z,1888
2017-12-02T09:53:09.597Z,1892
2017-12-02T09:53:35.083Z,1932
2017-12-02T09:54:00.592Z,1980
2017-12-02T09:54:26.091Z,2024
2017-12-02T09:54:51.598Z,2068
2017-12-02T09:55:17.077Z,2056
2017-12-02T09:55:42.576Z,2032
2017-12-02T09:57:01.470Z,1964
2017-12-02T09:57:26.957Z,1948
2017-12-02T09:57:52.435Z,1960
2017-12-02T09:58:17.920Z,1896
2017-12-02T09:58:43.406Z,1856
2017-12-02T09:59:08.860Z,1848
2017-12-02T09:59:34.364Z,1860
2017-12-02T09:59:59.855Z,1900
2017-12-02T10:00:25.412Z,1980
2017-12-02T10:00:50.940Z,1984
2017-12-02T10:01:16.408Z,1984
2017-12-02T10:01:41.915Z,2016
2017-12-02T10:02:07.401Z,2076
2017-12-02T10:02:32.890Z,2080
2017-12-02T10:02:58.348Z,2148
2017-12-02T10:03:23.848Z,2176
2017-12-02T10:03:49.397Z,2188
2017-12-02T10:04:14.842Z,2168
2017-12-02T10:04:40.338Z,2156
2017-12-02T10:05:05.798Z,2184
2017-12-02T10:05:31.307Z,2212
2017-12-02T10:05:56.818Z,2220
2017-12-02T10:06:22.362Z,2200
2017-12-02T10:06:47.760Z,2232
2017-12-02T10:07:13.223Z,2280
2017-12-02T10:07:38.750Z,2312
2017-12-02T10:08:04.161Z,2320
2017-12-02T10:08:29.652Z,2296
2017-12-02T10:08:55.129Z,2244
2017-12-02T10:09:20.637Z,2184
2017-12-02T10:09:46.089Z,2128
2017-12-02T10:10:11.594Z,2080
2017-12-02T10:10:37.042Z,2064
2017-12-02T10:11:02.560Z,2040
2017-12-02T10:11:28.083Z,2016
2017-12-02T10:11:53.552Z,2032
2017-12-02T10:12:19.013Z,2056
2017-12-02T10:12:44.460Z,2068
2017-12-02T10:13:09.919Z,2060
2017-12-02T10:13:35.447Z,2080
2017-12-02T10:14:00.886Z,2104
2017-12-02T10:14:26.378Z,2088
2017-12-02T10:14:51.908Z,2068
2017-12-02T10:15:17.365Z,2044
2017-12-02T10:15:42.881Z,2040
2017-12-02T10:16:08.333Z,2024
2017-12-02T10:17:22.150Z,2032
2017-12-02T10:17:47.670Z,2008
2017-12-02T10:18:13.108Z,1980
2017-12-02T10:18:38.590Z,1960
2017-12-02T10:19:04.068Z,1980
2017-12-02T10:19:29.513Z,2028
2017-12-02T10:19:54.993Z,2088
2017-12-02T10:20:20.488Z,2112
2017-12-02T10:20:45.970Z,2104
2017-12-02T10:21:11.486Z,2112
2017-12-02T10:21:36.975Z,2104
2017-12-02T10:22:02.430Z,2088
2017-12-02T10:22:27.907Z,2080
2017-12-02T10:22:53.372Z,2052
2017-12-02T10:23:18.848Z,2056
2017-12-02T10:23:44.309Z,2044
2017-12-02T10:24:09.802Z,2040
2017-12-02T10:24:35.265Z,2032
2017-12-02T10:25:00.760Z,2052
2017-12-02T10:25:26.239Z,2060
2017-12-02T10:25:51.767Z,2052
2017-12-02T10:26:17.269Z,2036
2017-12-02T10:26:42.703Z,2024
2017-12-02T10:27:08.220Z,2024
2017-12-02T10:27:33.730Z,2092
2017-12-02T10:27:59.192Z,2140
2017-12-02T10:28:24.676Z,2144
2017-12-02T10:28:50.140Z,2116
2017-12-02T10:29:15.668Z,2080
2017-12-02T10:29:41.169Z,2072
2017-12-02T10:30:06.621Z,2076
2017-12-02T10:30:32.115Z,2104
2017-12-02T10:30:57.596Z,2140
2017-12-02T10:31:23.058Z,2200
2017-12-02T10:31:48.529Z,2284
2017-12-02T10:32:14.015Z,2348
2017-12-02T10:32:39.512Z,2400
2017-12-02T10:33:05.002Z,2468
2017-12-02T10:33:30.482Z,2496
2017-12-02T10:33:55.925Z,2476
2017-12-02T10:34:21.441Z,2484
2017-12-02T10:34:46.858Z,2476
2017-12-02T10:35:12.393Z,2444
2017-12-02T10:35:37.866Z,2436
2017-12-02T10:36:03.351Z,2452
2017-12-02T10:36:28.828Z,2528
2017-12-02T10:36:54.285Z,2624
2017-12-02T10:37:19.796Z,2660
2017-12-02T10:37:45.267Z,2736
2017-12-02T10:38:10.755Z,2704
2017-12-02T10:38:36.214Z,2668
2017-12-02T10:39:01.696Z,2596
2017-12-02T10:39:27.205Z,2520
2017-12-02T10:39:52.666Z,2484
2017-12-02T10:40:18.146Z,2476
2017-12-02T10:40:43.641Z,2504
2017-12-02T10:41:09.156Z,2496
2017-12-02T10:41:34.651Z,2484
2017-12-02T10:42:00.122Z,2472
2017-12-02T10:42:25.750Z,2476
2017-12-02T10:42:51.227Z,2524
2017-12-02T10:43:16.710Z,2564
2017-12-02T10:43:42.191Z,2656
2017-12-02T10:44:07.637Z,2692
2017-12-02T10:44:33.121Z,2652
2017-12-02T10:44:58.635Z,2640
2017-12-02T10:45:24.108Z,2588
2017-12-02T10:45:49.567Z,2516
2017-12-02T10:46:15.057Z,2520
2017-12-02T10:46:40.522Z,2584
2017-12-02T10:47:06.003Z,2688
2017-12-02T10:47:31.504Z,2792
2017-12-02T10:48:35.322Z,3076
2017-12-02T10:49:00.811Z,3168
2017-12-02T10:49:26.324Z,3176
2017-12-02T10:49:51.815Z,3072
2017-12-02T10:50:17.333Z,3032
2017-12-02T10:50:42.809Z,3056
2017-12-02T10:51:08.308Z,3024
2017-12-02T10:51:33.762Z,3080
2017-12-02T10:51:59.232Z,3156
2017-12-02T10:52:24.713Z,3308
2017-12-02T10:52:50.197Z,3440
2017-12-02T10:53:15.658Z,3416
2017-12-02T10:53:41.082Z,3312
2017-12-02T10:54:44.731Z,3012
2017-12-02T10:55:10.199Z,2924
2017-12-02T10:55:35.674Z,2856
2017-12-02T10:56:44.380Z,2748
2017-12-02T10:57:09.886Z,2676
2017-12-02T10:57:35.390Z,2648
2017-12-02T10:58:00.929Z,2612
2017-12-02T10:58:26.449Z,2560
2017-12-02T10:58:51.920Z,2528
2017-12-02T10:59:17.520Z,2496
2017-12-02T10:59:43.163Z,2512
2017-12-02T11:00:08.598Z,2524
2017-12-02T11:00:34.183Z,2588
2017-12-02T11:00:59.688Z,2532
2017-12-02T11:01:25.083Z,2480
2017-12-02T11:01:50.648Z,2472
2017-12-02T11:02:16.162Z,2512
2017-12-02T11:02:41.585Z,2512
2017-12-02T11:03:55.389Z,2528
2017-12-02T11:04:20.894Z,2504
2017-12-02T11:04:46.422Z,2448
2017-12-02T11:05:11.945Z,2396
2017-12-02T11:05:37.494Z,2408
2017-12-02T11:06:03.048Z,2448
2017-12-02T11:06:28.512Z,2524
2017-12-02T11:06:53.973Z,2596
2017-12-02T11:08:12.851Z,2708
2017-12-02T11:08:38.329Z,2776
2017-12-02T11:09:03.815Z,2756
2017-12-02T11:10:22.702Z,2868
2017-12-02T11:10:48.167Z,2860
2017-12-02T11:11:13.656Z,2872
2017-12-02T11:11:39.163Z,2836
2017-12-02T11:12:04.629Z,2752
2017-12-02T11:12:30.133Z,2684
2017-12-02T11:12:55.557Z,2628
2017-12-02T11:13:21.025Z,2592
2017-12-02T11:13:46.515Z,2544
2017-12-02T11:14:11.984Z,2516
2017-12-02T11:14:37.493Z,2484
2017-12-02T11:15:03.007Z,2420
2017-12-02T11:15:28.438Z,2360
2017-12-02T11:15:53.901Z,2304
2017-12-02T11:17:07.675Z,2324
2017-12-02T11:17:33.165Z,2388
2017-12-02T11:17:58.641Z,2392
2017-12-02T11:18:24.148Z,2432
2017-12-02T11:18:49.628Z,2420
2017-12-02T11:19:15.137Z,2408
2017-12-02T11:19:40.617Z,2400
2017-12-02T11:20:06.122Z,2348
2017-12-02T11:20:31.626Z,2320
2017-12-02T11:20:57.143Z,2348
2017-12-02T11:21:22.634Z,2352
2017-12-02T11:21:48.085Z,2396